createdAt,value
2018-04-29T00:00:57.628Z,11.70
2018-04-29T00:03:25.770Z,11.70
2018-04-29T00:05:53.855Z,11.70
2018-04-29T00:08:21.984Z,11.60
2018-04-29T00:10:50.151Z,11.60
2018-04-29T00:13:18.247Z,11.50
2018-04-29T00:15:47.162Z,11.50
2018-04-29T00:18:15.346Z,11.50
2018-04-29T00:20:43.458Z,11.40
2018-04-29T00:23:11.570Z,11.40
2018-04-29T00:25:39.704Z,11.40
2018-04-29T00:28:07.794Z,11.40
2018-04-29T00:30:35.898Z,11.40
2018-04-29T00:33:04.047Z,11.30
2018-04-29T00:35:32.905Z,11.30
2018-04-29T00:38:01.018Z,11.30
2018-04-29T00:40:29.115Z,11.30
2018-04-29T00:42:57.261Z,11.20
2018-04-29T00:45:25.370Z,11.20
2018-04-29T00:47:53.467Z,11.20
2018-04-29T00:50:21.565Z,11.20
2018-04-29T00:52:50.455Z,11.20
2018-04-29T00:55:19.713Z,11.20
2018-04-29T00:57:47.851Z,11.20
2018-04-29T01:00:16.948Z,11.20
2018-04-29T01:02:45.036Z,11.20
2018-04-29T01:05:13.255Z,11.30
2018-04-29T01:07:41.360Z,11.30
2018-04-29T01:10:09.555Z,11.30
2018-04-29T01:12:37.690Z,11.30
2018-04-29T01:15:06.586Z,11.30
2018-04-29T01:17:34.796Z,11.40
2018-04-29T01:20:03.053Z,11.40
2018-04-29T01:22:31.288Z,11.40
2018-04-29T01:24:59.489Z,11.40
2018-04-29T01:27:28.375Z,11.40
2018-04-29T01:29:56.477Z,11.40
2018-04-29T01:32:24.594Z,11.50
2018-04-29T01:34:52.688Z,11.60
2018-04-29T01:37:20.822Z,11.70
2018-04-29T01:39:48.990Z,11.70
2018-04-29T01:42:17.208Z,11.80
2018-04-29T01:44:45.320Z,11.80
2018-04-29T01:47:13.438Z,11.90
2018-04-29T01:49:41.564Z,11.90
2018-04-29T01:52:09.660Z,12.00
2018-04-29T01:54:37.772Z,12.00
2018-04-29T01:57:05.870Z,12.00
2018-04-29T01:59:34.043Z,12.00
2018-04-29T02:02:02.251Z,12.00
2018-04-29T02:04:30.483Z,12.00
2018-04-29T02:06:58.707Z,12.10
2018-04-29T02:09:26.961Z,12.20
2018-04-29T02:11:55.228Z,12.40
2018-04-29T02:14:23.493Z,12.70
2018-04-29T02:16:51.762Z,12.90
2018-04-29T02:19:19.966Z,13.00
2018-04-29T02:21:48.154Z,13.10
2018-04-29T02:24:16.263Z,13.20
2018-04-29T02:26:44.372Z,13.30
2018-04-29T02:29:13.201Z,13.40
2018-04-29T02:31:41.294Z,13.40
2018-04-29T02:34:09.403Z,13.40
2018-04-29T02:36:37.495Z,13.40
2018-04-29T02:39:05.639Z,13.40
2018-04-29T02:41:33.745Z,13.40
2018-04-29T02:44:01.860Z,13.40
2018-04-29T02:46:30.727Z,13.40
2018-04-29T02:48:58.834Z,13.40
2018-04-29T02:51:28.253Z,13.30
2018-04-29T02:53:56.422Z,13.30
2018-04-29T02:56:24.581Z,13.20
2018-04-29T02:58:52.696Z,13.20
2018-04-29T03:01:20.815Z,13.10
2018-04-29T03:03:49.526Z,13.10
2018-04-29T03:06:17.665Z,13.00
2018-04-29T03:08:45.884Z,13.00
2018-04-29T03:11:14.142Z,13.00
2018-04-29T03:13:42.426Z,13.00
2018-04-29T03:16:10.636Z,12.90
2018-04-29T03:18:38.788Z,12.90
2018-04-29T03:21:06.892Z,12.90
2018-04-29T03:23:35.016Z,12.90
2018-04-29T03:26:03.135Z,12.80
2018-04-29T03:28:31.242Z,12.80
2018-04-29T03:31:00.100Z,12.80
2018-04-29T03:33:28.210Z,12.80
2018-04-29T03:35:57.097Z,12.80
2018-04-29T03:38:25.197Z,12.70
2018-04-29T03:40:53.312Z,12.70
2018-04-29T03:43:21.416Z,12.70
2018-04-29T03:45:49.540Z,12.70
2018-04-29T03:48:17.640Z,12.60
2018-04-29T03:50:45.754Z,12.60
2018-04-29T03:53:13.857Z,12.60
2018-04-29T03:55:41.959Z,12.60
2018-04-29T03:58:27.703Z,12.60
2018-04-29T04:01:13.500Z,12.50
2018-04-29T04:03:54.316Z,12.50
2018-04-29T04:06:22.417Z,12.50
2018-04-29T04:08:50.528Z,12.40
2018-04-29T04:11:18.672Z,12.40
2018-04-29T04:13:46.779Z,12.40
2018-04-29T04:16:14.865Z,12.30
2018-04-29T04:18:42.947Z,12.30
2018-04-29T04:21:11.039Z,12.30
2018-04-29T04:23:39.169Z,12.20
2018-04-29T04:26:07.351Z,12.20
2018-04-29T04:28:35.577Z,12.20
2018-04-29T04:31:03.961Z,12.20
2018-04-29T04:33:32.117Z,12.10
2018-04-29T04:36:00.380Z,12.10
2018-04-29T04:38:28.519Z,12.10
2018-04-29T04:40:56.668Z,12.10
2018-04-29T04:43:24.770Z,12.10
2018-04-29T04:45:53.423Z,12.10
2018-04-29T04:48:21.602Z,12.10
2018-04-29T04:50:49.755Z,12.00
2018-04-29T04:53:17.859Z,12.10
2018-04-29T04:55:45.959Z,12.10
2018-04-29T04:58:15.606Z,12.10
2018-04-29T05:00:43.653Z,12.10
2018-04-29T05:03:11.772Z,12.10
2018-04-29T05:05:39.881Z,12.10
2018-04-29T05:08:08.041Z,12.20
2018-04-29T05:10:36.179Z,12.20
2018-04-29T05:13:04.282Z,12.30
2018-04-29T05:15:32.476Z,12.30
2018-04-29T05:18:00.575Z,12.40
2018-04-29T05:20:28.682Z,12.40
2018-04-29T05:22:56.849Z,12.50
2018-04-29T05:25:24.964Z,12.50
2018-04-29T05:27:53.064Z,12.60
2018-04-29T05:30:21.156Z,12.60
2018-04-29T05:32:49.264Z,12.70
2018-04-29T05:35:17.468Z,12.70
2018-04-29T05:37:45.563Z,12.80
2018-04-29T05:40:13.683Z,12.80
2018-04-29T05:42:41.813Z,12.90
2018-04-29T05:45:09.906Z,12.90
2018-04-29T05:47:38.003Z,13.00
2018-04-29T05:50:06.119Z,13.10
2018-04-29T05:52:34.211Z,13.10
2018-04-29T05:55:02.668Z,13.20
2018-04-29T05:57:30.760Z,13.30
2018-04-29T05:59:59.996Z,13.30
2018-04-29T06:02:28.502Z,13.40
2018-04-29T06:04:56.614Z,13.40
2018-04-29T06:07:24.737Z,13.50
2018-04-29T06:09:52.860Z,13.60
2018-04-29T06:12:21.421Z,13.60
2018-04-29T06:14:49.561Z,13.70
2018-04-29T06:17:17.696Z,13.80
2018-04-29T06:19:46.831Z,13.80
2018-04-29T06:22:14.995Z,13.90
2018-04-29T06:24:43.221Z,14.00
2018-04-29T06:27:11.351Z,14.00
2018-04-29T06:29:39.481Z,14.10
2018-04-29T06:32:07.613Z,14.20
2018-04-29T06:34:35.704Z,14.30
2018-04-29T06:37:03.843Z,14.40
2018-04-29T06:39:31.955Z,14.50
2018-04-29T06:42:00.073Z,14.60
2018-04-29T06:44:28.257Z,14.70
2018-04-29T06:46:56.531Z,14.80
2018-04-29T06:49:24.784Z,14.80
2018-04-29T06:51:52.949Z,14.90
2018-04-29T06:54:21.199Z,15.00
2018-04-29T06:56:49.299Z,15.00
2018-04-29T06:59:17.428Z,15.10
2018-04-29T07:01:45.806Z,15.20
2018-04-29T07:04:14.675Z,15.20
2018-04-29T07:06:42.808Z,15.30
2018-04-29T07:09:10.932Z,15.30
2018-04-29T07:11:39.059Z,15.40
2018-04-29T07:14:07.272Z,15.40
2018-04-29T07:16:35.485Z,15.50
2018-04-29T07:19:03.727Z,15.60
2018-04-29T07:21:31.900Z,15.60
2018-04-29T07:24:00.034Z,15.70
2018-04-29T07:26:28.155Z,15.70
2018-04-29T07:28:56.275Z,15.80
2018-04-29T07:31:24.383Z,15.80
2018-04-29T07:33:52.520Z,15.90
2018-04-29T07:36:21.370Z,16.00
2018-04-29T07:38:49.499Z,16.00
2018-04-29T07:41:17.646Z,16.10
2018-04-29T07:43:45.750Z,16.20
2018-04-29T07:46:13.855Z,16.30
2018-04-29T07:48:41.958Z,16.40
2018-04-29T07:51:10.095Z,16.50
2018-04-29T07:53:38.258Z,16.60
2018-04-29T07:56:06.457Z,16.70
2018-04-29T07:58:35.344Z,16.70
2018-04-29T08:01:04.204Z,16.80
2018-04-29T08:03:32.320Z,16.90
2018-04-29T08:06:00.528Z,17.00
2018-04-29T08:08:28.640Z,17.10
2018-04-29T08:10:56.824Z,17.20
2018-04-29T08:13:24.950Z,17.30
2018-04-29T08:15:53.056Z,17.30
2018-04-29T08:18:21.195Z,17.40
2018-04-29T08:20:49.307Z,17.50
2018-04-29T08:23:17.441Z,17.60
2018-04-29T08:25:45.582Z,17.80
2018-04-29T08:28:13.687Z,17.90
2018-04-29T08:30:41.791Z,18.00
2018-04-29T08:33:09.992Z,18.10
2018-04-29T08:35:38.099Z,18.20
2018-04-29T08:38:06.215Z,18.40
2018-04-29T08:40:34.333Z,18.50
2018-04-29T08:43:02.465Z,18.70
2018-04-29T08:45:31.468Z,18.80
2018-04-29T08:47:59.630Z,19.00
2018-04-29T08:50:27.730Z,19.20
2018-04-29T08:52:55.896Z,19.30
2018-04-29T08:55:24.019Z,19.50
2018-04-29T08:57:52.110Z,19.60
2018-04-29T09:00:20.208Z,19.80
2018-04-29T09:02:48.309Z,19.90
2018-04-29T09:05:16.441Z,20.10
2018-04-29T09:07:44.530Z,20.30
2018-04-29T09:10:12.742Z,20.50
2018-04-29T09:12:41.011Z,20.70
2018-04-29T09:15:09.495Z,20.90
2018-04-29T09:17:37.674Z,21.10
2018-04-29T09:20:05.821Z,21.30
2018-04-29T09:22:33.942Z,21.50
2018-04-29T09:25:02.034Z,21.70
2018-04-29T09:27:30.138Z,21.90
2018-04-29T09:29:58.231Z,22.10
2018-04-29T09:32:26.357Z,22.20
2018-04-29T09:34:54.455Z,22.40
2018-04-29T09:37:22.673Z,22.60
2018-04-29T09:39:50.859Z,22.80
2018-04-29T09:42:19.095Z,23.00
2018-04-29T09:44:55.669Z,23.20
2018-04-29T09:47:23.795Z,23.40
2018-04-29T09:49:52.688Z,23.50
2018-04-29T09:52:20.961Z,23.70
2018-04-29T09:54:49.112Z,23.90
2018-04-29T09:57:17.367Z,24.10
2018-04-29T09:59:45.958Z,24.30
2018-04-29T10:02:14.074Z,24.50
2018-04-29T10:04:42.171Z,24.60
2018-04-29T10:07:10.331Z,24.70
2018-04-29T10:09:38.473Z,24.80
2018-04-29T10:12:06.565Z,24.90
2018-04-29T10:14:34.696Z,25.00
2018-04-29T10:17:02.872Z,25.10
2018-04-29T10:19:30.971Z,25.20
2018-04-29T10:21:59.871Z,25.20
2018-04-29T10:24:28.135Z,25.30
2018-04-29T10:26:56.348Z,25.40
2018-04-29T10:29:24.567Z,25.40
2018-04-29T10:31:52.798Z,25.50
2018-04-29T10:34:20.893Z,25.50
2018-04-29T10:36:52.826Z,25.60
2018-04-29T10:39:21.912Z,25.60
2018-04-29T10:41:50.005Z,25.70
2018-04-29T10:44:18.108Z,25.70
2018-04-29T10:46:46.209Z,25.80
2018-04-29T10:49:14.312Z,26.00
2018-04-29T10:51:42.430Z,26.10
2018-04-29T10:54:10.526Z,26.20
2018-04-29T10:56:39.479Z,26.30
2018-04-29T10:59:07.612Z,26.40
2018-04-29T11:01:35.740Z,26.50
2018-04-29T11:04:03.855Z,26.60
2018-04-29T11:06:31.989Z,26.70
2018-04-29T11:09:00.105Z,26.80
2018-04-29T11:11:28.215Z,27.00
2018-04-29T11:13:56.341Z,27.30
2018-04-29T11:16:24.444Z,27.50
2018-04-29T11:18:52.547Z,27.80
2018-04-29T11:21:20.664Z,28.00
2018-04-29T11:23:48.759Z,28.20
2018-04-29T11:26:16.867Z,28.40
2018-04-29T11:28:44.957Z,28.50
2018-04-29T11:31:13.083Z,28.70
2018-04-29T11:33:41.184Z,28.80
2018-04-29T11:36:09.313Z,29.00
2018-04-29T11:38:37.491Z,29.10
2018-04-29T11:41:05.619Z,29.40
2018-04-29T11:43:33.731Z,29.70
2018-04-29T11:46:01.907Z,30.00
2018-04-29T11:48:30.066Z,30.30
2018-04-29T11:50:58.186Z,30.60
2018-04-29T11:53:26.310Z,30.90
2018-04-29T11:55:54.412Z,31.20
2018-04-29T11:58:23.456Z,31.40
2018-04-29T12:00:51.637Z,31.70
2018-04-29T12:03:19.754Z,31.90
2018-04-29T12:05:47.866Z,32.10
2018-04-29T12:08:15.974Z,32.30
2018-04-29T12:10:48.253Z,32.50
2018-04-29T12:13:16.363Z,32.70
2018-04-29T12:15:44.472Z,32.80
2018-04-29T12:18:12.564Z,33.00
2018-04-29T12:20:40.695Z,33.10
2018-04-29T12:23:08.926Z,33.20
2018-04-29T12:25:37.080Z,33.30
2018-04-29T12:28:05.295Z,33.50
2018-04-29T12:30:33.404Z,33.60
2018-04-29T12:33:01.574Z,33.80
2018-04-29T12:35:30.455Z,34.00
2018-04-29T12:37:58.578Z,34.20
2018-04-29T12:40:26.666Z,34.40
2018-04-29T12:42:55.180Z,34.70
2018-04-29T12:45:24.037Z,35.00
2018-04-29T12:47:52.157Z,35.50
2018-04-29T12:50:21.495Z,36.10
2018-04-29T12:52:49.729Z,36.70
2018-04-29T12:55:18.629Z,37.10
2018-04-29T12:57:46.719Z,37.60
2018-04-29T13:00:14.890Z,37.90
2018-04-29T13:02:42.964Z,38.00
2018-04-29T13:05:11.093Z,38.00
2018-04-29T13:07:39.216Z,37.90
2018-04-29T13:10:07.339Z,37.80
2018-04-29T13:12:35.517Z,37.70
2018-04-29T13:15:03.609Z,37.60
2018-04-29T13:17:31.727Z,37.30
2018-04-29T13:19:59.828Z,37.00
2018-04-29T13:22:27.973Z,36.70
2018-04-29T13:24:56.075Z,36.40
2018-04-29T13:27:24.277Z,36.10
2018-04-29T13:29:52.487Z,35.90
2018-04-29T13:32:20.628Z,35.80
2018-04-29T13:34:48.771Z,35.60
2018-04-29T13:37:16.907Z,35.50
2018-04-29T13:39:45.547Z,35.40
2018-04-29T13:42:13.700Z,35.40
2018-04-29T13:44:41.940Z,35.50
2018-04-29T13:47:10.047Z,35.50
2018-04-29T13:49:38.177Z,35.50
2018-04-29T13:52:06.296Z,35.60
2018-04-29T13:54:34.506Z,35.80
2018-04-29T13:57:02.615Z,35.90
2018-04-29T13:59:30.728Z,36.00
2018-04-29T14:01:58.839Z,36.10
2018-04-29T14:04:26.933Z,36.20
2018-04-29T14:06:55.234Z,36.30
2018-04-29T14:09:23.418Z,36.30
2018-04-29T14:11:51.526Z,36.30
2018-04-29T14:14:19.633Z,36.40
2018-04-29T14:16:47.759Z,36.40
2018-04-29T14:19:15.874Z,36.50
2018-04-29T14:21:44.043Z,36.60
2018-04-29T14:24:12.154Z,36.90
2018-04-29T14:26:40.284Z,37.20
2018-04-29T14:29:08.447Z,37.40
2018-04-29T14:31:36.552Z,37.80
2018-04-29T14:34:04.706Z,38.10
2018-04-29T14:36:32.921Z,38.40
2018-04-29T14:39:00.948Z,38.60
2018-04-29T14:41:29.106Z,38.70
2018-04-29T14:43:57.235Z,38.80
2018-04-29T14:46:25.544Z,39.20
2018-04-29T14:48:53.850Z,39.60
2018-04-29T14:51:21.959Z,39.90
2018-04-29T14:53:51.179Z,40.10
2018-04-29T14:56:19.696Z,40.30
2018-04-29T14:58:47.811Z,40.30
2018-04-29T15:01:15.965Z,40.00
2018-04-29T15:03:44.004Z,39.50
2018-04-29T15:06:12.151Z,38.80
2018-04-29T15:08:40.393Z,38.00
2018-04-29T15:11:08.590Z,37.20
2018-04-29T15:13:36.805Z,36.40
2018-04-29T15:16:06.674Z,35.80
2018-04-29T15:18:52.361Z,35.20
2018-04-29T15:21:20.476Z,34.50
2018-04-29T15:23:48.667Z,34.00
2018-04-29T15:26:16.758Z,33.50
2018-04-29T15:28:44.961Z,33.00
2018-04-29T15:31:13.125Z,32.50
2018-04-29T15:33:41.297Z,32.10
2018-04-29T15:36:10.173Z,32.30
2018-04-29T15:38:38.332Z,32.90
2018-04-29T15:41:06.438Z,33.60
2018-04-29T15:43:34.535Z,34.20
2018-04-29T15:46:02.649Z,34.60
2018-04-29T15:48:30.784Z,34.80
2018-04-29T15:50:58.906Z,34.80
2018-04-29T15:53:27.004Z,34.80
2018-04-29T15:55:55.100Z,34.90
2018-04-29T15:58:23.217Z,35.30
2018-04-29T16:00:51.370Z,35.50
2018-04-29T16:03:19.776Z,35.90
2018-04-29T16:05:47.880Z,36.40
2018-04-29T16:08:15.999Z,36.90
2018-04-29T16:10:44.100Z,37.10
2018-04-29T16:13:12.314Z,37.20
2018-04-29T16:15:40.422Z,37.10
2018-04-29T16:18:08.546Z,37.00
2018-04-29T16:20:37.119Z,36.80
2018-04-29T16:23:05.366Z,36.60
2018-04-29T16:25:33.618Z,36.50
2018-04-29T16:28:01.833Z,36.20
2018-04-29T16:30:30.064Z,35.70
2018-04-29T16:32:58.670Z,35.20
2018-04-29T16:35:26.806Z,34.60
2018-04-29T16:37:55.005Z,34.00
2018-04-29T16:40:23.148Z,33.30
2018-04-29T16:42:51.323Z,32.70
2018-04-29T16:45:19.418Z,32.10
2018-04-29T16:47:47.615Z,31.70
2018-04-29T16:50:15.868Z,31.40
2018-04-29T16:52:44.287Z,31.10
2018-04-29T16:55:12.407Z,30.90
2018-04-29T16:57:41.399Z,30.70
2018-04-29T17:00:09.505Z,30.50
2018-04-29T17:02:38.386Z,30.20
2018-04-29T17:05:06.493Z,29.90
2018-04-29T17:07:34.656Z,29.70
2018-04-29T17:10:02.814Z,29.50
2018-04-29T17:12:30.958Z,29.30
2018-04-29T17:14:59.875Z,29.10
2018-04-29T17:17:27.992Z,28.90
2018-04-29T17:19:56.173Z,28.70
2018-04-29T17:22:24.347Z,28.50
2018-04-29T17:24:52.590Z,28.30
2018-04-29T17:27:21.442Z,28.10
2018-04-29T17:29:50.049Z,27.80
2018-04-29T17:32:18.240Z,27.60
2018-04-29T17:34:46.472Z,27.50
2018-04-29T17:37:15.442Z,27.30
2018-04-29T17:39:43.587Z,27.10
2018-04-29T17:42:11.797Z,26.90
2018-04-29T17:44:39.920Z,26.70
2018-04-29T17:47:08.030Z,26.50
2018-04-29T17:49:36.119Z,26.30
2018-04-29T17:52:04.251Z,26.20
2018-04-29T17:54:32.366Z,26.00
2018-04-29T17:57:00.936Z,25.90
2018-04-29T17:59:29.063Z,25.70
2018-04-29T18:01:57.849Z,25.60
2018-04-29T18:04:25.975Z,25.40
2018-04-29T18:06:54.093Z,25.30
2018-04-29T18:09:22.209Z,25.20
2018-04-29T18:11:50.304Z,25.00
2018-04-29T18:14:18.472Z,24.90
2018-04-29T18:16:46.714Z,24.70
2018-04-29T18:19:15.604Z,24.60
2018-04-29T18:21:44.218Z,24.50
2018-04-29T18:24:12.384Z,24.30
2018-04-29T18:26:40.678Z,24.20
2018-04-29T18:29:08.883Z,24.10
2018-04-29T18:31:37.603Z,24.00
2018-04-29T18:34:06.475Z,23.80
2018-04-29T18:36:34.614Z,23.70
2018-04-29T18:39:02.743Z,23.60
2018-04-29T18:41:30.912Z,23.60
2018-04-29T18:44:00.716Z,23.50
2018-04-29T18:46:28.821Z,23.40
2018-04-29T18:48:56.923Z,23.30
2018-04-29T18:51:25.151Z,23.20
2018-04-29T18:53:54.323Z,23.10
2018-04-29T18:56:23.015Z,23.00
2018-04-29T18:58:51.159Z,22.90
2018-04-29T19:01:19.267Z,22.80
2018-04-29T19:03:47.396Z,22.70
2018-04-29T19:06:15.565Z,22.60
2018-04-29T19:08:43.788Z,22.50
2018-04-29T19:11:12.676Z,22.50
2018-04-29T19:13:42.553Z,22.40
2018-04-29T19:16:10.657Z,22.30
2018-04-29T19:18:38.774Z,22.30
2018-04-29T19:21:06.982Z,22.20
2018-04-29T19:23:35.511Z,22.10
2018-04-29T19:26:03.627Z,22.10
2018-04-29T19:28:31.751Z,22.00
2018-04-29T19:30:59.909Z,22.00
2018-04-29T19:33:28.819Z,21.90
2018-04-29T19:35:56.942Z,21.80
2018-04-29T19:38:25.080Z,21.80
2018-04-29T19:40:53.181Z,21.70
2018-04-29T19:43:21.296Z,21.60
2018-04-29T19:45:50.197Z,21.60
2018-04-29T19:48:18.328Z,21.60
2018-04-29T19:50:46.468Z,21.50
2018-04-29T19:53:14.612Z,21.50
2018-04-29T19:55:42.771Z,21.40
2018-04-29T19:58:10.900Z,21.40
2018-04-29T20:00:39.019Z,21.30
2018-04-29T20:03:07.909Z,21.30
2018-04-29T20:05:36.813Z,21.30
2018-04-29T20:08:04.943Z,21.30
2018-04-29T20:10:33.044Z,21.20
2018-04-29T20:13:01.165Z,21.20
2018-04-29T20:15:29.375Z,21.10
2018-04-29T20:17:57.621Z,21.10
2018-04-29T20:20:26.256Z,21.00
2018-04-29T20:22:55.193Z,21.00
2018-04-29T20:25:23.309Z,21.00
2018-04-29T20:27:51.407Z,20.90
2018-04-29T20:30:19.531Z,20.90
2018-04-29T20:32:48.473Z,20.80
2018-04-29T20:35:16.571Z,20.80
2018-04-29T20:37:44.703Z,20.70
2018-04-29T20:40:12.835Z,20.70
2018-04-29T20:42:41.058Z,20.60
2018-04-29T20:45:09.251Z,20.50
2018-04-29T20:47:37.402Z,20.40
2018-04-29T20:50:05.619Z,20.30
2018-04-29T20:52:33.751Z,20.20
2018-04-29T20:55:01.900Z,20.10
2018-04-29T20:57:30.033Z,20.00
2018-04-29T20:59:58.133Z,19.90
2018-04-29T21:02:26.250Z,19.80
2018-04-29T21:04:54.374Z,19.70
2018-04-29T21:07:22.470Z,19.70
2018-04-29T21:09:50.632Z,19.60
2018-04-29T21:12:18.756Z,19.60
2018-04-29T21:14:46.953Z,19.60
2018-04-29T21:17:15.094Z,19.60
2018-04-29T21:19:43.220Z,19.60
2018-04-29T21:22:11.326Z,19.60
2018-04-29T21:24:39.458Z,19.70
2018-04-29T21:27:07.594Z,19.70
2018-04-29T21:29:35.869Z,19.70
2018-04-29T21:32:03.997Z,19.70
2018-04-29T21:34:32.102Z,19.70
2018-04-29T21:37:00.211Z,19.80
2018-04-29T21:39:28.321Z,19.90
2018-04-29T21:41:56.444Z,19.90
2018-04-29T21:44:24.547Z,19.90
2018-04-29T21:46:52.644Z,19.90
2018-04-29T21:49:21.517Z,19.90
2018-04-29T21:51:49.631Z,19.90
2018-04-29T21:54:17.759Z,19.90
2018-04-29T21:56:45.876Z,19.90
2018-04-29T21:59:14.009Z,19.90
2018-04-29T22:01:42.125Z,19.80
2018-04-29T22:04:10.403Z,19.80
2018-04-29T22:06:38.544Z,19.70
2018-04-29T22:09:06.803Z,19.60
2018-04-29T22:11:35.020Z,19.60
2018-04-29T22:14:03.274Z,19.50
2018-04-29T22:16:32.139Z,19.40
2018-04-29T22:19:00.252Z,19.30
2018-04-29T22:21:28.368Z,19.20
2018-04-29T22:23:56.466Z,19.10
2018-04-29T22:26:24.638Z,19.00
2018-04-29T22:28:52.744Z,18.90
2018-04-29T22:31:20.835Z,18.80
2018-04-29T22:33:48.937Z,18.70
2018-04-29T22:36:17.060Z,18.60
2018-04-29T22:38:45.155Z,18.50
2018-04-29T22:41:13.261Z,18.40
2018-04-29T22:43:41.379Z,18.30
2018-04-29T22:46:09.497Z,18.20
2018-04-29T22:48:37.725Z,18.10
2018-04-29T22:51:05.829Z,18.00
2018-04-29T22:53:33.954Z,17.90
2018-04-29T22:56:02.905Z,17.80
2018-04-29T22:58:31.047Z,17.70
2018-04-29T23:00:59.170Z,17.70
2018-04-29T23:03:27.288Z,17.60
2018-04-29T23:05:55.455Z,17.60
2018-04-29T23:08:23.609Z,17.60
2018-04-29T23:10:51.717Z,17.60
2018-04-29T23:13:20.446Z,17.50
2018-04-29T23:15:48.552Z,17.50
2018-04-29T23:18:16.644Z,17.40
2018-04-29T23:20:44.783Z,17.40
2018-04-29T23:23:12.883Z,17.30
2018-04-29T23:25:40.981Z,17.30
2018-04-29T23:28:09.124Z,17.20
2018-04-29T23:30:37.223Z,17.10
2018-04-29T23:33:05.336Z,17.10
2018-04-29T23:35:33.502Z,17.00
2018-04-29T23:38:01.750Z,17.00
2018-04-29T23:40:29.866Z,17.00
2018-04-29T23:42:58.762Z,16.90
2018-04-29T23:45:27.644Z,16.90
2018-04-29T23:47:55.776Z,16.80
2018-04-29T23:50:23.883Z,16.80
2018-04-29T23:52:52.024Z,16.80
2018-04-29T23:55:20.191Z,16.70
2018-04-29T23:57:48.299Z,16.70
